Time,TemperatureF,DewpointF,PressureIn,WindDirection,WindDirectionDegrees,WindSpeedMPH,WindSpeedGustMPH,Humidity,HourlyPrecipIn,Conditions,Clouds,dailyrainin,SolarRadiationWatts/m^2,SoftwareType,DateUTC
2013-09-24 00:02:00,36.0,29.0,-100.00,ESE,112,1.0,2.0,77,0.00,,,-99.99,0.000000,,2013-09-24 06:02:00,
2013-09-24 00:12:00,36.0,29.0,-100.00,ESE,112,1.0,2.0,77,0.00,,,-99.99,0.000000,,2013-09-24 06:12:00,
2013-09-24 00:22:00,35.0,29.0,-100.00,ESE,115,2.0,2.0,79,0.00,,,-99.99,0.000000,,2013-09-24 06:22:00,
2013-09-24 00:52:00,35.0,29.0,-100.00,ESE,115,2.0,2.0,79,0.00,,,-99.99,0.000000,,2013-09-24 06:52:00,
2013-09-24 01:03:00,35.0,29.0,-100.00,ESE,115,2.0,2.0,79,0.00,,,-99.99,0.000000,,2013-09-24 07:03:00,
2013-09-24 01:12:00,35.0,29.0,-100.00,ESE,115,2.0,2.0,79,0.00,,,-99.99,0.000000,,2013-09-24 07:12:00,
2013-09-24 01:22:00,34.0,29.0,-100.00,ESE,116,2.0,4.0,83,0.00,,,0.35,0.000000,,2013-09-24 07:22:00,
2013-09-24 01:52:00,34.0,29.0,-100.00,ESE,116,2.0,4.0,83,0.00,,,0.35,0.000000,,2013-09-24 07:52:00,
2013-09-24 02:02:00,34.0,29.0,-100.00,ESE,116,2.0,4.0,83,0.00,,,0.35,0.000000,,2013-09-24 08:02:00,
2013-09-24 02:11:00,34.0,29.0,-100.00,ESE,116,2.0,4.0,83,0.00,,,0.35,0.000000,,2013-09-24 08:11:00,
2013-09-24 02:52:00,34.0,30.0,-100.00,East,97,2.0,4.0,85,0.00,,,0.35,0.000000,,2013-09-24 08:52:00,
2013-09-24 03:02:00,34.0,30.0,-100.00,East,97,2.0,4.0,85,0.00,,,0.35,0.000000,,2013-09-24 09:02:00,
2013-09-24 03:12:00,34.0,30.0,-100.00,East,97,2.0,4.0,85,0.00,,,0.35,0.000000,,2013-09-24 09:12:00,
2013-09-24 03:21:00,34.0,30.0,-100.00,East,97,2.0,4.0,85,0.00,,,0.35,0.000000,,2013-09-24 09:21:00,
2013-09-24 03:22:00,33.0,29.0,-100.00,ESE,103,2.0,3.0,85,0.00,,,0.26,0.000000,,2013-09-24 09:22:00,
2013-09-24 03:54:00,33.0,29.0,-100.00,ESE,103,2.0,3.0,85,0.00,,,0.26,0.000000,,2013-09-24 09:54:00,
2013-09-24 04:03:00,33.0,29.0,-100.00,ESE,103,2.0,3.0,85,0.00,,,0.26,0.000000,,2013-09-24 10:03:00,
2013-09-24 04:13:00,33.0,29.0,-100.00,ESE,103,2.0,3.0,85,0.00,,,0.26,0.000000,,2013-09-24 10:13:00,
2013-09-24 04:22:00,31.0,28.0,-100.00,SW,218,2.0,3.0,89,0.00,,,0.11,0.000000,,2013-09-24 10:22:00,
2013-09-24 04:53:00,31.0,28.0,-100.00,SW,218,2.0,3.0,89,0.00,,,0.11,0.000000,,2013-09-24 10:53:00,
2013-09-24 05:03:00,31.0,28.0,-100.00,SW,218,2.0,3.0,89,0.00,,,0.11,0.000000,,2013-09-24 11:03:00,
2013-09-24 05:11:00,31.0,28.0,-100.00,SW,218,2.0,3.0,89,0.00,,,0.11,0.000000,,2013-09-24 11:11:00,
2013-09-24 05:22:00,30.0,28.0,-100.00,ESE,111,2.0,2.0,92,0.00,,,0.01,0.000000,,2013-09-24 11:22:00,
2013-09-24 05:52:00,30.0,28.0,-100.00,ESE,111,2.0,2.0,92,0.00,,,0.01,0.000000,,2013-09-24 11:52:00,
2013-09-24 06:01:00,30.0,28.0,-100.00,ESE,111,2.0,2.0,92,0.00,,,0.01,0.000000,,2013-09-24 12:01:00,
2013-09-24 06:12:00,30.0,28.0,-100.00,ESE,111,2.0,2.0,92,0.00,,,0.01,0.000000,,2013-09-24 12:12:00,
2013-09-24 06:22:00,30.0,29.0,-100.00,SE,143,1.0,3.0,96,0.00,,,0.01,0.000000,,2013-09-24 12:22:00,
2013-09-24 06:52:00,30.0,29.0,-100.00,SE,143,1.0,3.0,96,0.00,,,0.01,0.000000,,2013-09-24 12:52:00,
2013-09-24 07:02:00,30.0,29.0,-100.00,SE,143,1.0,3.0,96,0.00,,,0.01,0.000000,,2013-09-24 13:02:00,
2013-09-24 07:11:00,30.0,29.0,-100.00,SE,143,1.0,3.0,96,0.00,,,0.01,0.000000,,2013-09-24 13:11:00,
2013-09-24 07:52:00,32.0,29.0,-100.00,ESE,111,3.0,5.0,89,0.00,,,0.01,11.000000,,2013-09-24 13:52:00,
2013-09-24 08:02:00,32.0,29.0,-100.00,ESE,111,3.0,5.0,89,0.00,,,0.01,11.000000,,2013-09-24 14:02:00,
2013-09-24 08:12:00,32.0,29.0,-100.00,ESE,111,3.0,5.0,89,0.00,,,0.01,11.000000,,2013-09-24 14:12:00,
2013-09-24 08:21:00,32.0,29.0,-100.00,ESE,111,3.0,5.0,89,0.00,,,0.01,11.000000,,2013-09-24 14:21:00,
2013-09-24 08:22:00,39.0,31.0,-100.00,ESE,120,1.0,4.0,74,0.00,,,0.01,193.000000,,2013-09-24 14:22:00,
2013-09-24 08:52:00,39.0,31.0,-100.00,ESE,120,1.0,4.0,74,0.00,,,0.01,193.000000,,2013-09-24 14:52:00,
2013-09-24 09:01:00,39.0,31.0,-100.00,ESE,120,1.0,4.0,74,0.00,,,0.01,193.000000,,2013-09-24 15:01:00,
2013-09-24 09:11:00,39.0,31.0,-100.00,ESE,120,1.0,4.0,74,0.00,,,0.01,193.000000,,2013-09-24 15:11:00,
2013-09-24 09:22:00,41.0,32.0,-100.00,NNE,13,2.0,3.0,69,0.00,,,0.01,418.000000,,2013-09-24 15:22:00,
2013-09-24 09:54:00,41.0,32.0,-100.00,NNE,13,2.0,3.0,69,0.00,,,0.01,418.000000,,2013-09-24 15:54:00,
2013-09-24 10:03:00,41.0,32.0,-100.00,NNE,13,2.0,3.0,69,0.00,,,0.01,418.000000,,2013-09-24 16:03:00,
2013-09-24 10:13:00,41.0,32.0,-100.00,NNE,13,2.0,3.0,69,0.00,,,0.01,418.000000,,2013-09-24 16:13:00,
2013-09-24 10:22:00,46.0,34.0,-100.00,WNW,299,2.0,3.0,63,0.00,,,0.00,642.000000,,2013-09-24 16:22:00,
2013-09-24 10:53:00,46.0,34.0,-100.00,WNW,299,2.0,3.0,63,0.00,,,0.00,642.000000,,2013-09-24 16:53:00,
2013-09-24 11:02:00,46.0,34.0,-100.00,WNW,299,2.0,3.0,63,0.00,,,0.00,642.000000,,2013-09-24 17:02:00,
2013-09-24 11:13:00,46.0,34.0,-100.00,WNW,299,2.0,3.0,63,0.00,,,0.00,642.000000,,2013-09-24 17:13:00,
2013-09-24 11:22:00,50.0,35.0,-100.00,WNW,288,3.0,5.0,56,0.00,,,0.00,820.000000,,2013-09-24 17:22:00,
2013-09-24 11:54:00,50.0,35.0,-100.00,WNW,288,3.0,5.0,56,0.00,,,0.00,820.000000,,2013-09-24 17:54:00,
2013-09-24 12:03:00,50.0,35.0,-100.00,WNW,288,3.0,5.0,56,0.00,,,0.00,820.000000,,2013-09-24 18:03:00,
2013-09-24 12:12:00,50.0,35.0,-100.00,WNW,288,3.0,5.0,56,0.00,,,0.00,820.000000,,2013-09-24 18:12:00,
2013-09-24 12:22:00,56.0,31.0,-100.00,NW,316,2.0,4.0,38,0.00,,,0.00,934.000000,,2013-09-24 18:22:00,
2013-09-24 12:52:00,56.0,31.0,-100.00,NW,316,2.0,4.0,38,0.00,,,0.00,934.000000,,2013-09-24 18:52:00,
2013-09-24 13:02:00,56.0,31.0,-100.00,NW,316,2.0,4.0,38,0.00,,,0.00,934.000000,,2013-09-24 19:02:00,
2013-09-24 13:11:00,56.0,31.0,-100.00,NW,316,2.0,4.0,38,0.00,,,0.00,934.000000,,2013-09-24 19:11:00,
2013-09-24 13:22:00,60.0,27.0,-100.00,NW,311,3.0,4.0,28,0.00,,,-99.99,971.000000,,2013-09-24 19:22:00,
2013-09-24 13:52:00,60.0,27.0,-100.00,NW,311,3.0,4.0,28,0.00,,,-99.99,971.000000,,2013-09-24 19:52:00,
2013-09-24 14:02:00,60.0,27.0,-100.00,NW,311,3.0,4.0,28,0.00,,,-99.99,971.000000,,2013-09-24 20:02:00,
2013-09-24 14:11:00,60.0,27.0,-100.00,NW,311,3.0,4.0,28,0.00,,,-99.99,971.000000,,2013-09-24 20:11:00,
2013-09-24 17:22:00,65.0,22.0,-100.00,WNW,295,3.0,5.0,19,0.00,,,0.00,482.000000,,2013-09-24 23:22:00,
2013-09-24 17:53:00,65.0,22.0,-100.00,WNW,295,3.0,5.0,19,0.00,,,0.00,482.000000,,2013-09-24 23:53:00,
2013-09-24 18:02:00,65.0,22.0,-100.00,WNW,295,3.0,5.0,19,0.00,,,0.00,482.000000,,2013-09-25 00:02:00,
2013-09-24 18:12:00,65.0,22.0,-100.00,WNW,295,3.0,5.0,19,0.00,,,0.00,482.000000,,2013-09-25 00:12:00,
2013-09-24 18:52:00,63.0,20.0,-100.00,WSW,249,2.0,4.0,19,0.00,,,0.00,251.000000,,2013-09-25 00:52:00,
2013-09-24 19:02:00,63.0,20.0,-100.00,WSW,249,2.0,4.0,19,0.00,,,0.00,251.000000,,2013-09-25 01:02:00,
2013-09-24 19:52:00,53.0,27.0,-100.00,South,188,3.0,5.0,36,0.00,,,0.00,30.000000,,2013-09-25 01:52:00,
2013-09-24 20:02:00,53.0,27.0,-100.00,South,188,3.0,5.0,36,0.00,,,0.00,30.000000,,2013-09-25 02:02:00,
2013-09-24 20:12:00,53.0,27.0,-100.00,South,188,3.0,5.0,36,0.00,,,0.00,30.000000,,2013-09-25 02:12:00,
2013-09-24 20:21:00,53.0,27.0,-100.00,South,188,3.0,5.0,36,0.00,,,0.00,30.000000,,2013-09-25 02:21:00,
2013-09-24 20:22:00,49.0,31.0,-100.00,ESE,108,2.0,6.0,49,0.00,,,0.00,0.000000,,2013-09-25 02:22:00,
2013-09-24 20:52:00,49.0,31.0,-100.00,ESE,108,2.0,6.0,49,0.00,,,0.00,0.000000,,2013-09-25 02:52:00,
2013-09-24 21:02:00,49.0,31.0,-100.00,ESE,108,2.0,6.0,49,0.00,,,0.00,0.000000,,2013-09-25 03:02:00,
2013-09-24 21:11:00,49.0,31.0,-100.00,ESE,108,2.0,6.0,49,0.00,,,0.00,0.000000,,2013-09-25 03:11:00,
2013-09-24 21:22:00,46.0,31.0,-100.00,East,95,2.0,4.0,56,0.00,,,0.00,0.000000,,2013-09-25 03:22:00,
2013-09-24 21:55:00,46.0,31.0,-100.00,East,95,2.0,4.0,56,0.00,,,0.00,0.000000,,2013-09-25 03:55:00,
2013-09-24 22:04:00,46.0,31.0,-100.00,East,95,2.0,4.0,56,0.00,,,0.00,0.000000,,2013-09-25 04:04:00,
2013-09-24 22:14:00,46.0,31.0,-100.00,East,95,2.0,4.0,56,0.00,,,0.00,0.000000,,2013-09-25 04:14:00,
2013-09-24 22:22:00,45.0,31.0,-100.00,ESE,119,2.0,4.0,58,0.00,,,0.00,0.000000,,2013-09-25 04:22:00,
2013-09-24 22:54:00,45.0,31.0,-100.00,ESE,119,2.0,4.0,58,0.00,,,0.00,0.000000,,2013-09-25 04:54:00,
2013-09-24 23:03:00,45.0,31.0,-100.00,ESE,119,2.0,4.0,58,0.00,,,0.00,0.000000,,2013-09-25 05:03:00,
2013-09-24 23:12:00,45.0,31.0,-100.00,ESE,119,2.0,4.0,58,0.00,,,0.00,0.000000,,2013-09-25 05:12:00,
2013-09-24 23:22:00,45.0,29.0,-100.00,ESE,118,2.0,3.0,54,0.00,,,0.00,0.000000,,2013-09-25 05:22:00,
2013-09-24 23:53:00,45.0,29.0,-100.00,ESE,118,2.0,3.0,54,0.00,,,0.00,0.000000,,2013-09-25 05:53:00,